createdAt,value
2018-11-11T00:01:34.333Z,11.70
2018-11-11T00:04:02.759Z,11.80
2018-11-11T00:06:31.108Z,11.80
2018-11-11T00:08:59.453Z,11.80
2018-11-11T00:11:27.801Z,11.80
2018-11-11T00:13:56.136Z,11.80
2018-11-11T00:16:24.514Z,11.80
2018-11-11T00:18:52.857Z,11.80
2018-11-11T00:21:21.255Z,11.80
2018-11-11T00:23:50.218Z,11.80
2018-11-11T00:26:18.604Z,11.80
2018-11-11T00:28:47.060Z,11.80
2018-11-11T00:31:15.328Z,11.80
2018-11-11T00:33:43.704Z,11.80
2018-11-11T00:36:12.052Z,11.80
2018-11-11T00:38:40.549Z,11.80
2018-11-11T00:41:08.904Z,11.80
2018-11-11T00:43:37.270Z,11.80
2018-11-11T00:46:05.649Z,11.80
2018-11-11T00:48:34.118Z,11.80
2018-11-11T00:51:02.475Z,11.80
2018-11-11T00:53:30.829Z,11.80
2018-11-11T00:55:59.183Z,11.80
2018-11-11T00:58:27.556Z,11.80
2018-11-11T01:00:55.927Z,11.70
2018-11-11T01:03:24.325Z,11.70
2018-11-11T01:05:52.683Z,11.70
2018-11-11T01:08:21.103Z,11.70
2018-11-11T01:10:49.474Z,11.60
2018-11-11T01:13:17.807Z,11.60
2018-11-11T01:15:46.180Z,11.60
2018-11-11T01:18:14.586Z,11.60
2018-11-11T01:20:42.956Z,11.50
2018-11-11T01:23:11.359Z,11.40
2018-11-11T01:25:39.687Z,11.40
2018-11-11T01:28:07.988Z,11.40
2018-11-11T01:30:36.360Z,11.40
2018-11-11T01:33:04.763Z,11.40
2018-11-11T01:35:33.111Z,11.40
2018-11-11T01:38:01.448Z,11.50
2018-11-11T01:40:29.827Z,11.50
2018-11-11T01:42:58.172Z,11.40
2018-11-11T01:45:26.504Z,11.50
2018-11-11T01:47:54.832Z,11.50
2018-11-11T01:50:23.176Z,11.40
2018-11-11T01:52:51.522Z,11.40
2018-11-11T01:55:19.872Z,11.40
2018-11-11T01:57:48.256Z,11.30
2018-11-11T02:00:18.538Z,11.30
2018-11-11T02:02:47.677Z,11.30
2018-11-11T02:05:16.163Z,11.20
2018-11-11T02:07:45.513Z,11.20
2018-11-11T02:10:13.864Z,11.10
2018-11-11T02:12:43.232Z,11.10
2018-11-11T02:15:12.820Z,11.00
2018-11-11T02:17:41.292Z,11.00
2018-11-11T02:20:11.929Z,11.00
2018-11-11T02:22:40.333Z,10.90
2018-11-11T02:25:09.196Z,10.90
2018-11-11T02:27:37.528Z,10.80
2018-11-11T02:30:07.901Z,10.80
2018-11-11T02:32:36.318Z,10.70
2018-11-11T02:35:04.663Z,10.70
2018-11-11T02:37:33.102Z,10.70
2018-11-11T02:40:01.345Z,10.60
2018-11-11T02:42:29.688Z,10.60
2018-11-11T02:44:58.113Z,10.60
2018-11-11T02:47:26.491Z,10.60
2018-11-11T02:49:54.828Z,10.50
2018-11-11T02:52:23.300Z,10.50
2018-11-11T02:54:51.676Z,10.50
2018-11-11T02:57:20.012Z,10.50
2018-11-11T02:59:48.338Z,10.50
2018-11-11T03:02:16.724Z,10.50
2018-11-11T03:04:45.070Z,10.50
2018-11-11T03:07:13.417Z,10.40
2018-11-11T03:09:41.774Z,10.40
2018-11-11T03:12:10.079Z,10.40
2018-11-11T03:14:38.391Z,10.50
2018-11-11T03:17:07.636Z,10.40
2018-11-11T03:19:35.985Z,10.40
2018-11-11T03:22:04.376Z,10.40
2018-11-11T03:24:32.744Z,10.30
2018-11-11T03:27:01.079Z,10.30
2018-11-11T03:29:29.401Z,10.30
2018-11-11T03:31:57.773Z,10.30
2018-11-11T03:34:26.120Z,10.30
2018-11-11T03:36:54.476Z,10.30
2018-11-11T03:39:22.812Z,10.20
2018-11-11T03:41:51.156Z,10.20
2018-11-11T03:44:19.530Z,10.20
2018-11-11T03:46:47.882Z,10.10
2018-11-11T03:49:16.243Z,10.10
2018-11-11T03:51:44.584Z,10.10
2018-11-11T03:54:12.925Z,10.10
2018-11-11T03:56:41.234Z,10.10
2018-11-11T03:59:09.585Z,10.10
2018-11-11T04:01:37.952Z,10.10
2018-11-11T04:04:06.329Z,10.10
2018-11-11T04:06:34.672Z,10.10
2018-11-11T04:09:03.092Z,10.20
2018-11-11T04:11:31.409Z,10.10
2018-11-11T04:13:59.820Z,10.10
2018-11-11T04:16:28.196Z,10.10
2018-11-11T04:18:56.528Z,10.10
2018-11-11T04:21:24.880Z,10.20
2018-11-11T04:23:53.187Z,10.20
2018-11-11T04:26:21.538Z,10.20
2018-11-11T04:28:49.909Z,10.20
2018-11-11T04:31:18.256Z,10.20
2018-11-11T04:33:46.590Z,10.30
2018-11-11T04:36:14.924Z,10.30
2018-11-11T04:38:43.228Z,10.30
2018-11-11T04:41:11.552Z,10.30
2018-11-11T04:43:39.877Z,10.30
2018-11-11T04:46:08.256Z,10.30
2018-11-11T04:48:36.570Z,10.30
2018-11-11T04:51:05.005Z,10.30
2018-11-11T04:53:33.359Z,10.20
2018-11-11T04:56:01.710Z,10.30
2018-11-11T04:58:30.072Z,10.30
2018-11-11T05:00:58.411Z,10.30
2018-11-11T05:03:26.769Z,10.30
2018-11-11T05:05:55.127Z,10.30
2018-11-11T05:08:23.504Z,10.30
2018-11-11T05:10:51.864Z,10.40
2018-11-11T05:13:20.236Z,10.40
2018-11-11T05:15:48.619Z,10.30
2018-11-11T05:18:16.963Z,10.40
2018-11-11T05:20:45.332Z,10.40
2018-11-11T05:23:13.655Z,10.50
2018-11-11T05:25:42.018Z,10.50
2018-11-11T05:28:10.376Z,10.40
2018-11-11T05:30:38.728Z,10.50
2018-11-11T05:33:07.093Z,10.50
2018-11-11T05:35:35.428Z,10.50
2018-11-11T05:38:03.803Z,10.50
2018-11-11T05:40:32.171Z,10.50
2018-11-11T05:43:00.531Z,10.50
2018-11-11T05:45:28.864Z,10.50
2018-11-11T05:47:57.197Z,10.50
2018-11-11T05:50:25.533Z,10.50
2018-11-11T05:52:53.883Z,10.50
2018-11-11T05:55:22.236Z,10.50
2018-11-11T05:57:50.563Z,10.50
2018-11-11T06:00:18.957Z,10.40
2018-11-11T06:02:47.281Z,10.20
2018-11-11T06:05:16.095Z,10.20
2018-11-11T06:07:44.440Z,10.50
2018-11-11T06:10:13.874Z,10.70
2018-11-11T06:12:42.225Z,10.80
2018-11-11T06:15:11.558Z,10.80
2018-11-11T06:17:39.923Z,10.90
2018-11-11T06:20:10.727Z,11.00
2018-11-11T06:22:39.031Z,11.00
2018-11-11T06:25:07.685Z,11.00
2018-11-11T06:27:36.121Z,11.10
2018-11-11T06:30:04.945Z,11.10
2018-11-11T06:32:33.302Z,11.10
2018-11-11T06:35:01.675Z,11.10
2018-11-11T06:37:30.006Z,11.10
2018-11-11T06:39:58.339Z,11.10
2018-11-11T06:42:26.746Z,11.10
2018-11-11T06:44:55.065Z,11.10
2018-11-11T06:47:23.416Z,11.10
2018-11-11T06:49:51.772Z,11.10
2018-11-11T06:52:20.221Z,11.10
2018-11-11T06:54:48.586Z,11.00
2018-11-11T06:57:16.964Z,11.00
2018-11-11T06:59:45.327Z,10.90
2018-11-11T07:02:13.679Z,10.80
2018-11-11T07:04:42.033Z,10.80
2018-11-11T07:07:10.373Z,10.60
2018-11-11T07:09:38.733Z,10.60
2018-11-11T07:12:07.084Z,10.60
2018-11-11T07:14:35.401Z,10.60
2018-11-11T07:17:03.769Z,10.60
2018-11-11T07:19:32.122Z,10.60
2018-11-11T07:22:00.430Z,10.70
2018-11-11T07:24:28.777Z,10.70
2018-11-11T07:26:57.129Z,10.60
2018-11-11T07:29:25.472Z,10.60
2018-11-11T07:31:53.802Z,10.60
2018-11-11T07:34:22.186Z,10.70
2018-11-11T07:36:50.517Z,10.70
2018-11-11T07:39:18.861Z,10.80
2018-11-11T07:41:47.245Z,10.90
2018-11-11T07:44:15.604Z,10.90
2018-11-11T07:46:43.969Z,11.00
2018-11-11T07:49:12.324Z,11.00
2018-11-11T07:51:40.686Z,11.00
2018-11-11T07:54:09.033Z,11.10
2018-11-11T07:56:37.387Z,11.20
2018-11-11T07:59:06.008Z,11.30
2018-11-11T08:01:34.490Z,11.40
2018-11-11T08:04:02.760Z,11.50
2018-11-11T08:06:31.184Z,11.60
2018-11-11T08:08:59.555Z,11.60
2018-11-11T08:11:39.360Z,11.50
2018-11-11T08:14:07.816Z,11.60
2018-11-11T08:16:36.171Z,11.60
2018-11-11T08:19:04.521Z,11.60
2018-11-11T08:21:32.869Z,11.70
2018-11-11T08:24:01.467Z,11.80
2018-11-11T08:26:29.968Z,11.80
2018-11-11T08:28:58.997Z,11.80
2018-11-11T08:31:29.620Z,11.90
2018-11-11T08:33:58.095Z,12.00
2018-11-11T08:36:26.417Z,12.00
2018-11-11T08:38:54.799Z,12.10
2018-11-11T08:41:23.173Z,12.20
2018-11-11T08:43:51.540Z,12.30
2018-11-11T08:46:19.928Z,12.30
2018-11-11T08:48:48.328Z,12.30
2018-11-11T08:51:16.733Z,12.30
2018-11-11T08:53:45.054Z,12.30
2018-11-11T08:56:13.445Z,12.40
2018-11-11T08:58:41.871Z,12.50
2018-11-11T09:01:10.241Z,12.50
2018-11-11T09:03:38.691Z,12.60
2018-11-11T09:06:07.084Z,12.60
2018-11-11T09:08:35.443Z,12.70
2018-11-11T09:11:03.868Z,12.80
2018-11-11T09:13:32.239Z,12.80
2018-11-11T09:16:00.688Z,12.90
2018-11-11T09:18:29.109Z,12.90
2018-11-11T09:20:57.659Z,13.10
2018-11-11T09:23:26.066Z,13.10
2018-11-11T09:25:54.481Z,13.20
2018-11-11T09:28:22.869Z,13.20
2018-11-11T09:30:51.254Z,13.30
2018-11-11T09:33:19.620Z,13.50
2018-11-11T09:35:48.021Z,13.60
2018-11-11T09:38:16.398Z,13.60
2018-11-11T09:40:44.756Z,13.60
2018-11-11T09:43:13.144Z,13.70
2018-11-11T09:45:41.495Z,13.70
2018-11-11T09:48:09.908Z,13.80
2018-11-11T09:50:38.414Z,13.90
2018-11-11T09:53:06.809Z,14.00
2018-11-11T09:55:35.204Z,14.10
2018-11-11T09:58:03.601Z,14.10
2018-11-11T10:00:31.972Z,14.10
2018-11-11T10:03:18.132Z,14.30
2018-11-11T10:05:58.844Z,14.40
2018-11-11T10:08:34.188Z,14.40
2018-11-11T10:11:37.384Z,14.50
2018-11-11T10:14:23.309Z,14.60
2018-11-11T10:19:02.508Z,14.90
2018-11-11T10:21:34.768Z,15.10
2018-11-11T10:24:38.807Z,15.30
2018-11-11T10:29:13.703Z,15.50
2018-11-11T10:31:54.484Z,15.40
2018-11-11T10:34:33.222Z,15.60
2018-11-11T10:37:06.099Z,16.00
2018-11-11T10:39:45.504Z,16.20
2018-11-11T10:42:30.138Z,16.60
2018-11-11T10:46:05.990Z,16.90
2018-11-11T10:48:39.714Z,17.10
2018-11-11T10:51:08.160Z,17.00
2018-11-11T10:53:36.862Z,17.00
2018-11-11T10:56:10.420Z,17.20
2018-11-11T10:58:39.228Z,17.30
2018-11-11T11:01:13.325Z,17.50
2018-11-11T11:03:41.780Z,17.80
2018-11-11T11:06:10.214Z,17.80
2018-11-11T11:08:42.835Z,17.70
2018-11-11T11:11:11.204Z,17.70
2018-11-11T11:13:39.770Z,17.60
2018-11-11T11:16:08.245Z,17.80
2018-11-11T11:18:36.644Z,17.50
2018-11-11T11:21:05.141Z,17.40
2018-11-11T11:23:33.657Z,17.40
2018-11-11T11:26:02.369Z,17.60
2018-11-11T11:28:30.906Z,17.60
2018-11-11T11:30:59.256Z,17.70
2018-11-11T11:33:27.713Z,17.70
2018-11-11T11:41:42.988Z,17.80
2018-11-11T11:44:18.765Z,18.20
2018-11-11T11:46:47.889Z,18.60
2018-11-11T11:49:18.069Z,18.70
2018-11-11T11:51:53.860Z,18.70
2018-11-11T11:54:28.402Z,18.30
2018-11-11T11:56:58.283Z,18.20
2018-11-11T11:59:28.625Z,18.50
2018-11-11T12:01:57.674Z,18.70
2018-11-11T12:04:26.690Z,18.70
2018-11-11T12:06:56.198Z,18.60
2018-11-11T12:09:24.866Z,18.50
2018-11-11T12:11:54.390Z,18.40
2018-11-11T12:14:23.279Z,18.40
2018-11-11T12:16:52.242Z,18.50
2018-11-11T12:19:21.788Z,18.60
2018-11-11T12:21:52.409Z,18.60
2018-11-11T12:24:21.923Z,18.60
2018-11-11T12:26:50.792Z,18.60
2018-11-11T12:29:19.583Z,18.50
2018-11-11T12:31:48.402Z,18.30
2018-11-11T12:34:16.964Z,18.00
2018-11-11T12:36:45.533Z,18.00
2018-11-11T12:39:14.380Z,18.10
2018-11-11T12:41:42.882Z,18.20
2018-11-11T12:44:11.551Z,18.10
2018-11-11T12:46:40.052Z,17.80
2018-11-11T12:52:23.605Z,18.00
2018-11-11T13:17:55.732Z,18.10
2018-11-11T13:20:24.229Z,18.10
2018-11-11T13:22:52.980Z,18.10
2018-11-11T13:25:21.274Z,17.90
2018-11-11T13:27:49.654Z,17.80
2018-11-11T13:30:18.057Z,17.80
2018-11-11T13:32:46.439Z,17.80
2018-11-11T13:35:15.726Z,17.90
2018-11-11T13:37:44.142Z,17.90
2018-11-11T13:40:14.784Z,17.90
2018-11-11T13:42:43.215Z,17.80
2018-11-11T13:45:14.301Z,17.80
2018-11-11T13:47:43.756Z,17.70
2018-11-11T13:50:14.586Z,17.50
2018-11-11T13:52:43.500Z,17.50
2018-11-11T13:55:12.511Z,17.50
2018-11-11T13:57:41.473Z,17.70
2018-11-11T14:00:13.991Z,17.70
2018-11-11T14:02:42.384Z,17.70
2018-11-11T14:05:10.814Z,17.60
2018-11-11T14:07:39.215Z,17.50
2018-11-11T14:10:08.890Z,17.60
2018-11-11T14:12:37.902Z,17.60
2018-11-11T14:15:08.535Z,17.70
2018-11-11T14:17:37.001Z,17.50
2018-11-11T14:20:06.615Z,17.40
2018-11-11T14:22:35.071Z,17.30
2018-11-11T14:25:03.529Z,17.30
2018-11-11T14:27:32.011Z,17.20
2018-11-11T14:30:00.430Z,17.10
2018-11-11T14:32:28.906Z,17.00
2018-11-11T14:34:57.173Z,17.00
2018-11-11T14:37:25.777Z,16.90
2018-11-11T14:39:54.457Z,16.80
2018-11-11T14:42:22.792Z,16.70
2018-11-11T14:44:51.216Z,16.70
2018-11-11T14:47:19.935Z,16.60
2018-11-11T14:49:48.306Z,16.60
2018-11-11T14:52:16.820Z,16.60
2018-11-11T14:54:45.147Z,16.50
2018-11-11T15:17:27.033Z,16.20
2018-11-11T15:19:56.433Z,16.10
2018-11-11T15:22:24.969Z,16.00
2018-11-11T15:24:53.387Z,16.00
2018-11-11T15:27:23.023Z,15.90
2018-11-11T15:29:52.225Z,15.90
2018-11-11T15:32:20.889Z,15.80
2018-11-11T15:34:49.362Z,15.70
2018-11-11T15:37:20.116Z,15.60
2018-11-11T15:39:49.005Z,15.50
2018-11-11T15:42:17.442Z,15.50
2018-11-11T15:44:45.873Z,15.30
2018-11-11T15:47:14.241Z,15.20
2018-11-11T15:49:42.661Z,15.10
2018-11-11T15:52:11.986Z,15.00
2018-11-11T15:54:40.758Z,14.90
2018-11-11T15:57:09.309Z,14.90
2018-11-11T15:59:37.751Z,14.70
2018-11-11T16:02:06.260Z,14.60
2018-11-11T16:04:34.616Z,14.50
2018-11-11T16:07:03.038Z,14.40
2018-11-11T16:09:31.844Z,14.30
2018-11-11T16:12:00.726Z,14.20
2018-11-11T16:14:29.348Z,14.20
2018-11-11T16:49:11.680Z,12.80
2018-11-11T16:51:40.091Z,12.90
2018-11-11T16:54:08.541Z,12.80
2018-11-11T16:56:36.878Z,12.80
2018-11-11T16:59:05.942Z,12.70
2018-11-11T17:01:34.421Z,12.60
2018-11-11T17:04:03.120Z,12.50
2018-11-11T17:06:31.621Z,12.50
2018-11-11T17:09:00.192Z,12.40
2018-11-11T17:11:28.652Z,12.40
2018-11-11T17:13:57.269Z,12.30
2018-11-11T17:16:25.689Z,12.20
2018-11-11T17:18:54.136Z,12.20
2018-11-11T17:21:22.534Z,12.30
2018-11-11T17:23:51.043Z,12.20
2018-11-11T17:26:19.453Z,12.20
2018-11-11T17:28:48.069Z,12.10
2018-11-11T17:31:17.099Z,12.10
2018-11-11T17:33:45.740Z,12.10
2018-11-11T17:36:14.216Z,12.10
2018-11-11T17:38:42.724Z,12.20
2018-11-11T17:41:11.113Z,12.30
2018-11-11T17:43:39.490Z,12.30
2018-11-11T17:46:07.952Z,12.20
2018-11-11T17:48:36.341Z,12.30
2018-11-11T17:51:04.857Z,12.20
2018-11-11T17:53:33.281Z,12.20
2018-11-11T17:56:01.844Z,12.20
2018-11-11T17:58:31.308Z,12.10
2018-11-11T18:00:59.938Z,12.10
2018-11-11T18:03:28.373Z,12.10
2018-11-11T18:05:58.426Z,12.10
2018-11-11T18:08:26.983Z,12.10
2018-11-11T18:10:55.425Z,12.20
2018-11-11T18:13:23.855Z,12.10
2018-11-11T18:15:52.310Z,12.00
2018-11-11T18:18:20.779Z,12.10
2018-11-11T18:20:49.224Z,12.00
2018-11-11T18:23:17.891Z,12.00
2018-11-11T18:25:48.566Z,12.00
2018-11-11T18:28:16.987Z,11.90
2018-11-11T18:30:45.407Z,12.00
2018-11-11T18:33:13.797Z,12.00
2018-11-11T18:35:42.278Z,12.00
2018-11-11T18:38:10.783Z,12.00
2018-11-11T18:40:39.277Z,12.00
2018-11-11T18:43:07.707Z,12.00
2018-11-11T18:45:36.144Z,12.00
2018-11-11T18:48:04.938Z,12.00
2018-11-11T18:50:33.873Z,12.00
2018-11-11T18:53:03.110Z,12.00
2018-11-11T18:55:31.623Z,12.00
2018-11-11T18:58:00.320Z,12.00
2018-11-11T19:00:30.280Z,12.00
2018-11-11T19:02:58.821Z,12.00
2018-11-11T19:05:27.647Z,12.10
2018-11-11T19:07:56.225Z,12.00
2018-11-11T19:10:26.912Z,12.10
2018-11-11T19:12:56.891Z,12.10
2018-11-11T19:15:25.328Z,12.00
2018-11-11T19:17:54.115Z,12.00
2018-11-11T19:20:23.498Z,12.00
2018-11-11T19:22:51.899Z,11.90
2018-11-11T19:25:21.559Z,12.00
2018-11-11T19:27:50.984Z,12.00
2018-11-11T19:30:20.440Z,12.10
2018-11-11T19:32:49.434Z,12.10
2018-11-11T19:35:18.235Z,12.10
2018-11-11T19:37:48.830Z,12.10
2018-11-11T19:40:19.422Z,12.00
2018-11-11T19:42:48.066Z,12.10
2018-11-11T19:45:17.929Z,12.10
2018-11-11T19:47:46.415Z,12.10
2018-11-11T19:50:17.177Z,12.10
2018-11-11T19:52:46.824Z,12.20
2018-11-11T19:55:15.910Z,12.20
2018-11-11T19:57:44.366Z,12.20
2018-11-11T20:00:15.010Z,12.10
2018-11-11T20:02:44.928Z,12.10
2018-11-11T20:05:14.235Z,12.20
2018-11-11T20:07:43.928Z,12.20
2018-11-11T20:10:13.728Z,12.10
2018-11-11T20:12:42.449Z,12.10
2018-11-11T20:15:13.051Z,12.10
2018-11-11T20:17:42.239Z,12.10
2018-11-11T20:20:14.912Z,12.10
2018-11-11T20:22:43.417Z,12.10
2018-11-11T20:25:13.208Z,12.10
2018-11-11T20:27:42.050Z,12.00
2018-11-11T20:30:15.681Z,12.00
2018-11-11T20:32:44.217Z,12.00
2018-11-11T20:35:13.978Z,12.10
2018-11-11T20:37:42.554Z,12.00
2018-11-11T20:40:14.303Z,12.00
2018-11-11T20:42:43.444Z,12.00
2018-11-11T20:45:12.822Z,12.00
2018-11-11T20:47:42.158Z,11.90
2018-11-11T20:50:13.110Z,11.90
2018-11-11T20:52:42.532Z,11.90
2018-11-11T20:55:11.751Z,11.90
2018-11-11T20:57:40.724Z,11.90
2018-11-11T21:00:13.537Z,11.90
2018-11-11T21:02:42.474Z,11.90
2018-11-11T21:05:13.287Z,11.90
2018-11-11T21:07:42.913Z,11.90
2018-11-11T21:10:16.601Z,11.90
2018-11-11T21:12:45.795Z,11.90
2018-11-11T21:15:15.360Z,11.90
2018-11-11T21:17:44.814Z,11.90
2018-11-11T21:20:15.194Z,11.90
2018-11-11T21:22:44.406Z,12.00
2018-11-11T21:25:14.027Z,12.00
2018-11-11T21:27:43.799Z,12.00
2018-11-11T21:30:22.187Z,12.00
2018-11-11T21:32:51.275Z,12.00
2018-11-11T21:35:19.950Z,12.00
2018-11-11T21:37:49.191Z,12.10
2018-11-11T21:40:19.649Z,12.00
2018-11-11T21:42:49.442Z,12.10
2018-11-11T21:45:19.342Z,12.10
2018-11-11T21:47:48.533Z,12.00
2018-11-11T21:50:18.492Z,12.00
2018-11-11T21:52:55.889Z,12.10
2018-11-11T21:55:25.219Z,12.00
2018-11-11T21:57:53.753Z,11.90
2018-11-11T22:00:22.898Z,12.00
2018-11-11T22:02:52.181Z,11.90
2018-11-11T22:05:20.818Z,11.80
2018-11-11T22:07:50.275Z,11.70
2018-11-11T22:10:19.352Z,11.70
2018-11-11T22:12:48.361Z,11.70
2018-11-11T22:15:17.496Z,11.70
2018-11-11T22:17:46.187Z,11.80
2018-11-11T22:20:15.172Z,11.70
2018-11-11T22:22:43.567Z,11.60
2018-11-11T22:25:12.029Z,11.60
2018-11-11T22:27:40.396Z,11.60
2018-11-11T22:30:10.086Z,11.50
2018-11-11T22:32:38.882Z,11.60
2018-11-11T22:35:08.224Z,11.50
2018-11-11T22:37:36.683Z,11.50
2018-11-11T22:40:06.971Z,11.50
2018-11-11T22:42:35.761Z,11.50
2018-11-11T22:45:05.021Z,11.50
2018-11-11T22:47:33.481Z,11.50
2018-11-11T22:50:02.028Z,11.50
2018-11-11T22:52:30.597Z,11.50
2018-11-11T22:54:59.000Z,11.40
2018-11-11T22:57:27.462Z,11.50
2018-11-11T22:59:56.004Z,11.50
2018-11-11T23:02:24.448Z,11.50
2018-11-11T23:04:53.063Z,11.40
2018-11-11T23:07:21.555Z,11.50
2018-11-11T23:09:50.268Z,11.40
2018-11-11T23:12:18.721Z,11.50
2018-11-11T23:14:47.200Z,11.50
2018-11-11T23:17:15.632Z,11.50
2018-11-11T23:19:44.370Z,11.50
2018-11-11T23:22:13.005Z,11.50
2018-11-11T23:24:41.609Z,11.40
2018-11-11T23:27:10.098Z,11.40
2018-11-11T23:29:38.626Z,11.50
2018-11-11T23:32:07.288Z,11.50
2018-11-11T23:34:36.013Z,11.50
2018-11-11T23:37:04.662Z,11.50
2018-11-11T23:39:33.017Z,11.50
2018-11-11T23:42:01.527Z,11.50
2018-11-11T23:44:30.217Z,11.50
2018-11-11T23:46:59.072Z,11.50
2018-11-11T23:49:27.996Z,11.50
2018-11-11T23:51:57.056Z,11.50
2018-11-11T23:54:25.880Z,11.50
2018-11-11T23:56:54.601Z,11.40
2018-11-11T23:59:23.301Z,11.40
